Terminal Aerodrome Forecast
Issued by NWS

Home | Current Version | Previous Version | Text Only | Print | Product List | Glossary On
Versions: 1 2 3 4 5 6 7 8 9 10 11 12
649
FTUS46 KMTR 232323
TAFMRY
TAF
KMRY 232323Z 2400/2424 29005KT P6SM BKN180
     FM240300 24003KT P6SM FEW100 BKN150
     FM240800 VRB02KT P6SM BKN012
      TEMPO 2410/2414 4SM BR OVC008
     FM241600 VRB02KT P6SM FEW010 SCT120
     FM241900 32004KT P6SM FEW150 BKN200=

USA.gov is the U.S. government's official web portal to all federal, state and local government web resources and services.